FOOL Airport Information

Runway Information
Runway 16 Length 9844 ft width 148 ft
Elevation 29 ft Threshold 0 ft Heading 154
Runway 34 Length 9844 ft Width 148 ft
Elevation 28 ft Threshold 0 ft Heading 334
Airport Frequencies
Type A/G Name A/G VOICE Frequency 655.9 MHZ
Type RDO Name LIBREVILLE Frequency 666.6 MHZ
Type TWR Name TWR Frequency 118.7 MHZ
Airport Navaids
Type VOR-DME Name Libreville Frequency 112100 KHZ
Airport Weather Information & NOTAM
ADDS - METARS form results

(0158 UTC 22 January 2020)
Data provider http://aviationweather.gov/metar/data/
 
METAR text: FOOL 220130Z 27004KT 240V310 8000 SCT010 BKN030 29/26 Q1010 NOSIG
Conditions at: FOOL (LIBREVILLE/LEON , GA) observed 0130 UTC 22 January 2020
Temperature: 29.0°C (84°F)
Dewpoint: 26.0°C (79°F) [RH = 84%]
Pressure (altimeter): 29.82 inches Hg (1010.0 mb)
Winds: from the W (270 degrees) at 5 MPH (4 knots; 2.1 m/s)
Visibility: 5 miles ( 8 km)
Ceiling: 3000 feet AGL
Clouds: scattered clouds at 1000 feet AGL
broken clouds at 3000 feet AGL
Weather: no significant weather observed at this time

METAR text: FOOL 220100Z 26006KT 230V290 8000 SCT010 BKN030 29/26 Q1010 NOSIG
Conditions at: FOOL (LIBREVILLE/LEON , GA) observed 0100 UTC 22 January 2020
Temperature: 29.0°C (84°F)
Dewpoint: 26.0°C (79°F) [RH = 84%]
Pressure (altimeter): 29.82 inches Hg (1010.0 mb)
Winds: from the W (260 degrees) at 7 MPH (6 knots; 3.1 m/s)
Visibility: 5 miles ( 8 km)
Ceiling: 3000 feet AGL
Clouds: scattered clouds at 1000 feet AGL
broken clouds at 3000 feet AGL
Weather: no significant weather observed at this time

Forecast for: FOOL (LIBREVILLE/LEON , GA)
Text: TAF FOOL 212300Z 2200/2306 27006KT 9999 SCT011 BKN033
Forecast period: 0000 UTC 22 January 2020 to 0600 UTC 23 January 2020
Forecast type: FROM: standard forecast or significant change
Winds: from the W (270 degrees) at 7 MPH (6 knots; 3.1 m/s)
Visibility: 6 or more miles 10+ km)
Ceiling: 3300 feet AGL
Clouds: scattered clouds at 1100 feet AGL
broken clouds at 3300 feet AGL
Weather: no significant weather forecast for this period
Text: PROB30
Forecast period: 0400 to 0700 UTC 22 January 2020
Forecast type: TEMPORARY: The following changes expected for less than half the time period
Visibility: 2.49 miles (4.01 km)
Ceiling: unknown
Clouds: missing
Weather: BR  (mist)